Time;durP1;ratioP1;P1;durP2;ratioP2;P2;SDS_P1;SDS_P2;PMS_P1;PMS_P2;Temp;Humidity;BMP_temperature;BMP_pressure;BME280_temperature;BME280_humidity;BME280_pressure;Samples;Min_cycle;Max_cycle;Signal;HPM_P1;HPM_P2
2022/10/20 00:01:14;;;;;;;9.70;6.10;;;;;;;12.54;60.19;101727.56;4966027;28;119385;-69
2022/10/20 00:03:42;;;;;;;9.40;5.82;;;;;;;12.53;60.24;101717.88;4965304;28;124164;-69
2022/10/20 00:06:18;;;;;;;10.82;6.43;;;;;;;12.52;60.26;101718.78;4949584;28;122554;-69
2022/10/20 00:08:46;;;;;;;10.35;6.32;;;;;;;12.52;60.32;101716.13;4947439;28;118095;-69
2022/10/20 00:11:15;;;;;;;9.77;6.18;;;;;;;12.51;60.42;101716.19;4948972;28;118871;-69
2022/10/20 00:13:44;;;;;;;9.60;6.22;;;;;;;12.51;60.31;101714.41;4966879;28;124029;-69
2022/10/20 00:16:12;;;;;;;10.77;6.20;;;;;;;12.50;60.34;101704.69;4966975;28;126650;-69
2022/10/20 00:18:40;;;;;;;11.32;6.68;;;;;;;12.51;60.26;101689.59;4967535;28;119092;-69
2022/10/20 00:21:11;;;;;;;10.30;6.40;;;;;;;12.48;60.57;101690.59;4949450;28;117828;-69
2022/10/20 00:23:38;;;;;;;13.50;6.82;;;;;;;12.47;60.44;101696.88;4965780;28;124356;-69
2022/10/20 00:26:10;;;;;;;11.05;6.35;;;;;;;12.45;60.42;101696.03;4966181;28;123690;-69
2022/10/20 00:28:37;;;;;;;10.80;6.53;;;;;;;12.45;60.55;101690.72;4965381;28;119115;-69
2022/10/20 00:31:05;;;;;;;9.43;6.75;;;;;;;12.43;60.60;101692.56;4966744;28;118285;-69
2022/10/20 00:33:33;;;;;;;10.50;6.95;;;;;;;12.43;60.56;101681.94;4966783;28;123267;-69
2022/10/20 00:36:02;;;;;;;11.40;7.35;;;;;;;12.42;60.80;101664.28;4964927;28;124701;-69
2022/10/20 00:38:29;;;;;;;10.45;6.47;;;;;;;12.43;60.79;101660.69;4965890;28;120059;-69
2022/10/20 00:40:58;;;;;;;12.38;7.00;;;;;;;12.41;60.69;101662.53;4963778;28;120186;-69
2022/10/20 00:43:44;;;;;;;14.20;7.30;;;;;;;12.37;60.36;101655.63;4946380;28;123099;-69
2022/10/20 00:46:15;;;;;;;10.57;7.22;;;;;;;12.38;60.75;101658.22;4961230;28;123885;-69
2022/10/20 00:48:46;;;;;;;11.73;6.95;;;;;;;12.35;60.80;101652.16;4943545;28;119500;-69
2022/10/20 00:51:15;;;;;;;10.82;7.07;;;;;;;12.33;60.62;101659.34;4963476;28;119547;-69
2022/10/20 00:53:44;;;;;;;10.25;7.30;;;;;;;12.32;60.88;101652.28;4966953;28;124028;-69
2022/10/20 00:56:11;;;;;;;13.98;7.28;;;;;;;12.32;60.95;101652.28;4943813;28;122011;-69
2022/10/20 00:58:38;;;;;;;13.95;7.75;;;;;;;12.32;60.77;101654.94;4965737;28;119030;-69
2022/10/20 01:01:06;;;;;;;14.65;7.85;;;;;;;12.32;60.83;101652.28;4947117;28;118800;-69
2022/10/20 01:03:41;;;;;;;11.30;7.28;;;;;;;12.32;60.79;101646.97;4965490;28;124150;-69
2022/10/20 01:06:08;;;;;;;12.48;7.13;;;;;;;12.32;60.77;101641.66;4964379;28;123483;-68
2022/10/20 01:08:35;;;;;;;13.05;7.20;;;;;;;12.31;60.84;101634.63;4944040;28;118337;-69
2022/10/20 01:11:14;;;;;;;14.80;7.57;;;;;;;12.27;60.91;101624.13;4962450;28;119196;-69
2022/10/20 01:14:01;;;;;;;12.20;8.10;;;;;;;12.25;60.73;101620.66;4942753;28;124593;-69
2022/10/20 01:16:34;;;;;;;15.18;7.15;;;;;;;12.23;60.79;101617.19;4962564;28;122939;-69
2022/10/20 01:19:22;;;;;;;12.73;7.53;;;;;;;12.21;60.88;101613.75;4964264;28;119335;-69
2022/10/20 01:22:06;;;;;;;14.18;7.43;;;;;;;12.19;60.77;101620.91;4965856;28;118936;-69
2022/10/20 01:24:39;;;;;;;12.68;7.65;;;;;;;12.17;61.04;101617.44;4960954;28;124812;-69
2022/10/20 01:27:15;;;;;;;10.98;7.50;;;;;;;12.15;60.90;101619.28;4963653;28;124004;-69
2022/10/20 01:30:15;;;;;;;13.30;8.48;;;;;;;12.14;60.98;101606.06;4962540;28;120452;-69
2022/10/20 01:32:52;;;;;;;13.38;8.57;;;;;;;12.12;61.09;101592.84;4962888;28;119002;-69
2022/10/20 01:35:58;;;;;;;12.48;8.20;;;;;;;12.09;61.12;101582.34;4962189;28;124691;-69
2022/10/20 01:39:10;;;;;;;12.47;7.93;;;;;;;12.08;61.10;101601.88;4946711;28;122858;-69
2022/10/20 01:41:55;;;;;;;16.73;8.18;;;;;;;12.07;61.22;101589.50;4961425;28;119873;-69
2022/10/20 01:44:25;;;;;;;12.93;8.20;;;;;;;12.07;61.24;101573.56;4960274;28;119145;-69
2022/10/20 01:46:54;;;;;;;12.93;8.35;;;;;;;12.06;61.49;101567.41;4963157;28;123630;-69
2022/10/20 01:49:22;;;;;;;15.30;9.00;;;;;;;12.05;61.34;101554.19;4966231;28;123792;-69
2022/10/20 01:51:49;;;;;;;18.00;9.00;;;;;;;12.04;61.25;101557.78;4966007;28;119064;-69
2022/10/20 01:54:22;;;;;;;15.57;9.25;;;;;;;12.03;61.58;101564.00;4966077;28;119403;-69
2022/10/20 01:57:26;;;;;;;14.20;8.95;;;;;;;12.03;61.57;101556.03;4936420;28;123384;-69
2022/10/20 02:00:09;;;;;;;16.98;8.98;;;;;;;12.03;61.66;101556.03;4963230;28;123974;-69
2022/10/20 02:03:08;;;;;;;18.83;9.60;;;;;;;12.02;61.76;101543.72;4946390;28;119181;-69
2022/10/20 02:05:44;;;;;;;12.32;9.07;;;;;;;12.03;61.54;101534.81;4915393;28;118132;-69
2022/10/20 02:08:33;;;;;;;15.27;9.55;;;;;;;12.03;61.82;101524.19;4944701;28;124604;-69
2022/10/20 02:11:03;;;;;;;15.10;9.52;;;;;;;12.02;61.97;101522.47;4962768;28;124236;-69
2022/10/20 02:13:34;;;;;;;17.33;10.23;;;;;;;12.03;61.91;101524.19;4965289;28;119229;-69
2022/10/20 02:16:09;;;;;;;15.45;9.43;;;;;;;12.04;61.99;101525.94;4962540;28;118704;-69
2022/10/20 02:18:40;;;;;;;17.43;9.63;;;;;;;12.05;61.87;101517.00;4962038;28;123994;-69
2022/10/20 02:21:09;;;;;;;19.67;9.82;;;;;;;12.07;61.80;101509.84;4963243;28;123769;-69
2022/10/20 02:23:40;;;;;;;14.27;9.35;;;;;;;12.08;61.96;101517.75;4947003;28;120166;-69
2022/10/20 02:26:11;;;;;;;14.95;9.73;;;;;;;12.10;61.85;101530.97;4964986;28;119969;-69
2022/10/20 02:28:43;;;;;;;14.15;9.80;;;;;;;12.11;62.14;101530.06;4967827;28;122919;-69
2022/10/20 02:31:10;;;;;;;13.35;9.15;;;;;;;12.15;62.21;101523.69;4948345;28;123702;-69
2022/10/20 02:33:39;;;;;;;16.70;10.15;;;;;;;12.17;62.06;101527.16;4951140;28;119142;-69
2022/10/20 02:36:14;;;;;;;12.57;9.60;;;;;;;12.19;62.15;101525.31;4968719;28;118947;-69
2022/10/20 02:38:41;;;;;;;17.87;10.00;;;;;;;12.21;62.32;101512.81;4943812;28;123969;-69
2022/10/20 02:41:08;;;;;;;19.27;10.32;;;;;;;12.23;62.16;101505.66;4949835;28;122530;-69
2022/10/20 02:43:35;;;;;;;19.45;9.55;;;;;;;12.24;62.32;101496.78;4966470;28;119182;-69
2022/10/20 02:46:02;;;;;;;15.82;9.80;;;;;;;12.25;62.13;101498.47;4950298;28;117618;-69
2022/10/20 02:48:29;;;;;;;17.05;9.45;;;;;;;12.27;62.34;101506.38;4967883;28;124073;-69
2022/10/20 02:50:57;;;;;;;15.02;9.77;;;;;;;12.30;62.41;101510.69;4968174;28;124282;-69
2022/10/20 02:53:24;;;;;;;16.30;10.15;;;;;;;12.32;62.40;101508.84;4938263;28;118712;-69
2022/10/20 02:55:51;;;;;;;17.25;10.00;;;;;;;12.34;62.39;101501.66;4967977;28;119506;-69
2022/10/20 02:58:18;;;;;;;14.40;10.25;;;;;;;12.35;62.22;101511.38;4967570;28;124301;-69
2022/10/20 03:00:45;;;;;;;18.92;10.70;;;;;;;12.39;62.13;101499.69;4968486;28;123775;-69
2022/10/20 03:03:12;;;;;;;21.42;10.85;;;;;;;12.40;62.25;101496.13;4968270;28;119348;-69
2022/10/20 03:05:43;;;;;;;17.00;9.63;;;;;;;12.42;62.24;101488.94;4968515;28;118954;-69
2022/10/20 03:08:10;;;;;;;17.75;10.40;;;;;;;12.41;62.29;101468.59;4947981;28;123148;-69
2022/10/20 03:10:37;;;;;;;16.25;10.02;;;;;;;12.39;62.30;101452.72;4944114;28;123394;-69
2022/10/20 03:13:04;;;;;;;14.88;10.02;;;;;;;12.38;62.07;101445.72;4964590;28;120828;-69
2022/10/20 03:15:32;;;;;;;17.10;10.73;;;;;;;12.37;62.33;101448.41;4949101;28;118902;-69
2022/10/20 03:17:59;;;;;;;18.02;10.27;;;;;;;12.35;62.21;101450.28;4966971;28;124805;-69
2022/10/20 03:20:26;;;;;;;15.52;9.98;;;;;;;12.35;62.27;101451.13;4967692;28;125116;-69
2022/10/20 03:22:53;;;;;;;17.05;10.48;;;;;;;12.37;62.32;101448.41;4949323;28;119031;-69
2022/10/20 03:25:20;;;;;;;14.05;10.57;;;;;;;12.36;62.50;101436.09;4967537;28;118940;-69
2022/10/20 03:27:50;;;;;;;17.02;10.70;;;;;;;12.35;62.51;101418.41;4949348;28;123220;-69
2022/10/20 03:30:17;;;;;;;18.85;10.95;;;;;;;12.36;62.49;101409.53;4965774;28;123859;-69
2022/10/20 03:32:44;;;;;;;18.25;9.70;;;;;;;12.37;62.54;101421.84;4967477;28;119344;-69
2022/10/20 03:35:11;;;;;;;18.73;10.63;;;;;;;12.39;62.37;101420.00;4966556;28;118928;-69
2022/10/20 03:37:38;;;;;;;19.27;10.20;;;;;;;12.41;62.56;101408.41;4966373;28;124796;-69
2022/10/20 03:40:06;;;;;;;18.00;10.30;;;;;;;12.42;62.47;101403.94;4967089;28;124394;-70
2022/10/20 03:42:33;;;;;;;19.75;10.55;;;;;;;12.45;62.73;101401.13;4948124;28;118142;-69
2022/10/20 03:45:00;;;;;;;18.48;10.75;;;;;;;12.47;62.55;101401.94;4947857;28;120069;-70
2022/10/20 03:47:27;;;;;;;19.05;10.75;;;;;;;12.48;62.45;101398.34;4967662;28;123911;-69
2022/10/20 03:49:54;;;;;;;15.15;10.82;;;;;;;12.50;62.42;101401.78;4966563;28;123569;-69
2022/10/20 03:52:21;;;;;;;16.55;10.73;;;;;;;12.51;62.55;101392.91;4949557;28;118118;-69
2022/10/20 03:54:49;;;;;;;16.88;10.63;;;;;;;12.52;62.55;101399.94;4967268;28;119308;-68
2022/10/20 03:57:15;;;;;;;18.05;11.30;;;;;;;12.53;62.56;101385.72;4949289;28;123600;-69
2022/10/20 03:59:42;;;;;;;16.63;10.75;;;;;;;12.54;62.65;101366.19;4948324;28;123188;-69
2022/10/20 04:02:22;;;;;;;16.20;11.05;;;;;;;12.56;62.61;101374.94;4967102;28;120881;-69
2022/10/20 04:04:49;;;;;;;20.65;11.82;;;;;;;12.57;62.46;101382.00;4964280;28;121143;-69
2022/10/20 04:07:16;;;;;;;15.65;10.65;;;;;;;12.59;62.62;101381.94;4966915;28;124636;-69
2022/10/20 04:09:43;;;;;;;17.50;10.30;;;;;;;12.60;62.72;101365.94;4966820;28;123772;-69
2022/10/20 04:12:10;;;;;;;18.00;10.43;;;;;;;12.63;62.62;101371.09;4967091;28;119454;-69
2022/10/20 04:14:37;;;;;;;17.35;10.80;;;;;;;12.65;62.65;101363.91;4967050;28;118690;-69
2022/10/20 04:17:05;;;;;;;16.90;11.18;;;;;;;12.66;62.75;101362.13;4948171;28;124762;-69
2022/10/20 04:19:32;;;;;;;16.45;10.70;;;;;;;12.69;62.74;101363.78;4965099;28;124721;-69
2022/10/20 04:21:59;;;;;;;18.63;11.10;;;;;;;12.73;62.73;101368.00;4966300;28;119000;-69
2022/10/20 04:24:26;;;;;;;15.80;10.77;;;;;;;12.76;62.86;101359.91;4949863;28;118639;-69
2022/10/20 04:26:53;;;;;;;19.15;10.70;;;;;;;12.77;62.76;101361.63;4965851;28;123823;-69
2022/10/20 04:29:20;;;;;;;16.38;10.18;;;;;;;12.80;62.68;101358.84;4965827;28;125380;-69
2022/10/20 04:31:47;;;;;;;17.10;11.48;;;;;;;12.81;62.79;101358.75;4948846;28;119563;-69
2022/10/20 04:34:15;;;;;;;16.55;11.00;;;;;;;12.84;62.72;101357.75;4965960;28;118928;-69
2022/10/20 04:36:42;;;;;;;17.00;11.23;;;;;;;12.87;62.54;101351.44;4966117;28;125096;-69
2022/10/20 04:39:09;;;;;;;16.52;10.73;;;;;;;12.88;62.60;101342.53;4966591;28;123899;-69
2022/10/20 04:41:36;;;;;;;15.32;10.00;;;;;;;12.90;62.63;101336.19;4965602;28;119421;-69
2022/10/20 04:44:03;;;;;;;18.50;11.07;;;;;;;12.92;62.55;101338.78;4966991;28;119025;-69
2022/10/20 04:46:30;;;;;;;19.08;10.77;;;;;;;12.95;62.54;101328.88;4964027;28;124389;-69
2022/10/20 04:48:57;;;;;;;21.08;10.98;;;;;;;12.96;62.44;101325.28;4965440;28;123893;-69
2022/10/20 04:51:24;;;;;;;15.77;11.15;;;;;;;12.96;62.53;101309.34;4965858;28;120656;-69
2022/10/20 04:53:51;;;;;;;16.92;10.35;;;;;;;12.98;62.50;101302.16;4966602;28;119111;-69
2022/10/20 04:56:20;;;;;;;14.50;10.43;;;;;;;12.98;62.64;101306.59;4948056;28;123705;-69
2022/10/20 04:58:47;;;;;;;16.45;10.48;;;;;;;12.99;62.68;101309.16;4977341;28;124018;-69
2022/10/20 05:01:15;;;;;;;17.40;10.98;;;;;;;13.00;62.69;101305.59;4977709;28;118351;-70
2022/10/20 05:03:42;;;;;;;18.90;11.57;;;;;;;13.03;62.57;101299.25;4985263;28;118746;-69
2022/10/20 05:06:12;;;;;;;16.02;10.70;;;;;;;13.04;62.74;101296.53;4990627;28;124676;-69
2022/10/20 05:08:40;;;;;;;17.48;10.98;;;;;;;13.07;62.59;101305.28;4966280;28;124572;-69
2022/10/20 05:11:09;;;;;;;21.58;10.52;;;;;;;13.09;62.61;101282.13;4974204;28;119847;-69
2022/10/20 05:13:36;;;;;;;20.90;10.80;;;;;;;13.10;62.53;101274.09;4946103;28;118341;-70
2022/10/20 05:16:04;;;;;;;15.82;10.82;;;;;;;13.12;62.68;101271.38;4965115;28;124368;-72
2022/10/20 05:18:32;;;;;;;19.10;10.63;;;;;;;13.14;62.42;101280.97;4966138;28;124369;-70
2022/10/20 05:21:14;;;;;;;16.02;10.48;;;;;;;13.16;62.71;101278.25;4966252;28;119663;-71
2022/10/20 05:23:42;;;;;;;15.85;10.50;;;;;;;13.18;62.65;101257.75;4962408;28;118676;-70
2022/10/20 05:26:15;;;;;;;20.40;10.25;;;;;;;13.19;62.63;101254.19;4963312;28;124023;-70
2022/10/20 05:28:46;;;;;;;16.85;11.52;;;;;;;13.21;62.52;101249.63;4963183;28;126528;-70
2022/10/20 05:31:16;;;;;;;15.95;10.88;;;;;;;13.23;62.73;101247.75;4939362;28;118697;-70
2022/10/20 05:33:45;;;;;;;16.35;10.63;;;;;;;13.25;62.71;101253.88;4948929;28;119117;-70
2022/10/20 05:36:14;;;;;;;26.42;11.02;;;;;;;13.27;62.55;101259.97;4964815;28;123825;-69
2022/10/20 05:38:48;;;;;;;17.98;11.15;;;;;;;13.29;63.14;101263.41;4963162;28;123916;-70
2022/10/20 05:41:18;;;;;;;16.65;10.90;;;;;;;13.32;62.83;101267.75;4947580;28;119942;-69
2022/10/20 05:43:49;;;;;;;20.17;10.90;;;;;;;13.35;62.75;101252.47;4965849;28;120137;-69
2022/10/20 05:46:18;;;;;;;16.08;10.77;;;;;;;13.38;62.74;101225.72;4946400;28;123735;-69
2022/10/20 05:48:45;;;;;;;18.20;11.43;;;;;;;13.39;62.71;101211.50;4964154;28;123345;-69
2022/10/20 05:51:15;;;;;;;15.93;10.52;;;;;;;13.40;62.74;101207.88;4964007;28;118299;-69
2022/10/20 05:53:43;;;;;;;15.35;10.65;;;;;;;13.40;62.65;101207.88;4965774;28;119021;-70
2022/10/20 05:56:13;;;;;;;16.27;10.82;;;;;;;13.41;62.73;101228.25;4964576;28;124843;-70
2022/10/20 05:58:42;;;;;;;17.67;10.98;;;;;;;13.43;62.68;101271.59;4964946;28;123267;-70
2022/10/20 06:01:09;;;;;;;15.93;10.55;;;;;;;13.48;62.86;101283.81;4964960;28;119438;-70
2022/10/20 06:03:36;;;;;;;15.93;10.52;;;;;;;13.52;62.75;101264.09;4965686;28;118153;-70
2022/10/20 06:06:03;;;;;;;14.95;10.38;;;;;;;13.57;62.60;101267.38;4963996;28;124159;-70
2022/10/20 06:08:31;;;;;;;18.58;10.55;;;;;;;13.60;62.72;101272.56;4962646;28;123931;-69
2022/10/20 06:11:03;;;;;;;16.45;11.15;;;;;;;13.63;62.74;101267.06;4963840;28;120032;-69
2022/10/20 06:13:31;;;;;;;15.15;10.95;;;;;;;13.66;62.64;101272.25;4961307;28;118812;-70
2022/10/20 06:16:03;;;;;;;16.77;10.90;;;;;;;13.68;62.70;101281.00;4945661;28;123786;-70
2022/10/20 06:18:32;;;;;;;20.60;11.00;;;;;;;13.72;62.64;101271.91;4959614;28;124051;-69
2022/10/20 06:21:07;;;;;;;16.90;11.02;;;;;;;13.75;62.75;101265.56;4962980;28;119408;-70
2022/10/20 06:23:34;;;;;;;15.30;10.30;;;;;;;13.77;62.59;101269.88;4964539;28;118989;-70
2022/10/20 06:26:04;;;;;;;15.60;10.05;;;;;;;13.80;62.72;101274.19;4946593;28;123910;-70
2022/10/20 06:28:32;;;;;;;17.55;10.52;;;;;;;13.83;62.82;101272.22;4965075;28;123841;-70
2022/10/20 06:31:00;;;;;;;16.52;10.25;;;;;;;13.88;62.80;101264.03;4963778;28;120277;-70
2022/10/20 06:33:30;;;;;;;18.05;10.30;;;;;;;13.93;62.99;101258.44;4964128;28;119794;-70
2022/10/20 06:35:59;;;;;;;16.45;10.30;;;;;;;13.98;62.71;101256.41;4964122;28;123285;-70
2022/10/20 06:38:26;;;;;;;15.98;10.48;;;;;;;14.02;62.94;101247.31;4965911;28;124261;-70
2022/10/20 06:40:54;;;;;;;14.70;10.13;;;;;;;14.07;62.92;101250.59;4947080;28;118416;-70
2022/10/20 06:43:21;;;;;;;17.88;10.13;;;;;;;14.12;62.90;101243.19;4964984;28;118484;-70
2022/10/20 06:45:55;;;;;;;17.02;9.80;;;;;;;14.18;62.83;101264.19;4964982;28;124302;-70
2022/10/20 06:48:22;;;;;;;17.33;9.50;;;;;;;14.25;62.86;101279.84;4962400;28;124481;-70
2022/10/20 06:50:49;;;;;;;14.48;9.07;;;;;;;14.33;62.88;101277.63;4964512;28;120025;-69
2022/10/20 06:53:16;;;;;;;13.82;9.85;;;;;;;14.39;62.83;101287.94;4946879;28;118166;-70
2022/10/20 06:55:43;;;;;;;15.52;9.82;;;;;;;14.47;62.58;101264.41;4946645;28;124070;-69
2022/10/20 06:58:11;;;;;;;13.52;9.70;;;;;;;14.53;62.67;101261.41;4946376;28;123989;-70
2022/10/20 07:00:38;;;;;;;17.48;9.98;;;;;;;14.58;62.54;101256.72;4963598;28;119194;-69
2022/10/20 07:03:05;;;;;;;15.48;9.90;;;;;;;14.64;62.43;101244.00;4946998;28;118254;-70
2022/10/20 07:05:33;;;;;;;17.33;9.65;;;;;;;14.68;62.40;101245.56;4964536;28;123980;-70
2022/10/20 07:07:59;;;;;;;14.35;8.73;;;;;;;14.73;62.30;101252.34;4964570;28;124148;-70
2022/10/20 07:10:26;;;;;;;15.50;8.95;;;;;;;14.77;62.03;101256.56;4965062;28;119109;-69
2022/10/20 07:12:54;;;;;;;13.02;9.35;;;;;;;14.81;62.01;101262.59;4947275;28;118697;-69
2022/10/20 07:15:22;;;;;;;12.90;8.85;;;;;;;14.86;62.07;101259.66;4964523;28;123767;-70
2022/10/20 07:17:49;;;;;;;12.05;8.73;;;;;;;14.90;62.00;101251.41;4966354;28;123649;-70
2022/10/20 07:20:16;;;;;;;13.73;9.43;;;;;;;14.95;61.89;101248.47;4947611;28;119719;-70
2022/10/20 07:22:43;;;;;;;13.38;8.63;;;;;;;15.01;61.84;101241.91;4966469;28;120284;-70
2022/10/20 07:25:10;;;;;;;11.45;8.80;;;;;;;15.04;61.58;101241.75;4966335;28;123777;-71
2022/10/20 07:27:37;;;;;;;13.40;9.38;;;;;;;15.08;61.46;101237.94;4965304;28;126380;-70
2022/10/20 07:30:04;;;;;;;12.65;8.68;;;;;;;15.11;61.42;101232.44;4966528;28;119414;-70
2022/10/20 07:32:31;;;;;;;12.93;9.23;;;;;;;15.14;61.42;101248.25;4966678;28;119038;-70
2022/10/20 07:34:58;;;;;;;13.23;8.30;;;;;;;15.18;61.39;101249.78;4965705;28;123888;-70
2022/10/20 07:37:25;;;;;;;14.15;9.20;;;;;;;15.21;61.44;101249.63;4966444;28;124521;-70
2022/10/20 07:39:52;;;;;;;11.70;8.57;;;;;;;15.23;61.20;101247.72;4966914;28;119958;-70
2022/10/20 07:42:19;;;;;;;12.85;8.95;;;;;;;15.27;61.29;101248.41;4967469;28;118778;-70
2022/10/20 07:44:46;;;;;;;12.70;8.48;;;;;;;15.30;61.07;101245.56;4966572;28;123790;-70
2022/10/20 07:47:13;;;;;;;10.90;8.43;;;;;;;15.34;61.07;101250.63;4966561;28;124225;-70
2022/10/20 07:49:40;;;;;;;15.00;9.23;;;;;;;15.37;61.17;101245.13;4966318;28;119408;-70
2022/10/20 07:52:11;;;;;;;13.27;8.60;;;;;;;15.41;60.88;101252.94;4966339;28;118655;-70
2022/10/20 07:54:38;;;;;;;12.65;8.65;;;;;;;15.44;61.15;101244.75;4967554;28;124391;-70
2022/10/20 07:57:05;;;;;;;13.18;8.90;;;;;;;15.48;61.11;101251.63;4966993;28;124811;-69
2022/10/20 07:59:32;;;;;;;14.52;9.07;;;;;;;15.52;60.90;101243.38;4949545;28;119141;-70
2022/10/20 08:01:59;;;;;;;13.15;8.60;;;;;;;15.57;60.94;101229.72;4966235;28;119574;-70
2022/10/20 08:04:30;;;;;;;13.40;8.63;;;;;;;15.61;60.71;101235.75;4949171;28;123613;-70
2022/10/20 08:06:58;;;;;;;14.90;9.45;;;;;;;15.65;60.44;101238.16;4965596;28;123742;-70
2022/10/20 08:09:25;;;;;;;14.15;9.30;;;;;;;15.70;60.72;101236.03;4965781;28;120510;-70
2022/10/20 08:11:52;;;;;;;12.95;9.05;;;;;;;15.74;60.65;101226.94;4964947;28;117625;-70
2022/10/20 08:14:25;;;;;;;14.10;9.02;;;;;;;15.78;60.37;101238.28;4949962;28;124594;-70
2022/10/20 08:16:53;;;;;;;12.95;9.23;;;;;;;15.83;60.40;101240.69;4964094;28;123748;-70
2022/10/20 08:19:29;;;;;;;15.27;8.75;;;;;;;15.87;60.33;101231.53;4963699;28;119824;-70
2022/10/20 08:22:02;;;;;;;13.73;9.20;;;;;;;15.90;60.21;101236.69;4965173;28;119433;-70
2022/10/20 08:24:29;;;;;;;12.00;8.57;;;;;;;15.93;60.31;101226.66;4966572;28;124572;-70
2022/10/20 08:26:56;;;;;;;14.63;9.20;;;;;;;15.97;60.23;101221.97;4948771;28;123844;-70
2022/10/20 08:29:23;;;;;;;13.30;8.98;;;;;;;16.03;60.29;101232.31;4966909;28;119870;-70
2022/10/20 08:31:50;;;;;;;13.02;9.10;;;;;;;16.07;60.34;101223.16;4966609;28;119176;-70
2022/10/20 08:34:17;;;;;;;17.08;9.88;;;;;;;16.09;60.18;101221.25;4965808;28;124047;-70
2022/10/20 08:36:44;;;;;;;14.50;9.48;;;;;;;16.14;59.97;101208.47;4966291;28;124653;-70
2022/10/20 08:39:12;;;;;;;11.65;9.32;;;;;;;16.19;59.96;101215.31;4964939;28;119470;-70
2022/10/20 08:41:43;;;;;;;13.13;9.30;;;;;;;16.22;59.82;101209.75;4967182;28;118163;-70
2022/10/20 08:44:33;;;;;;;14.73;8.98;;;;;;;16.25;59.87;101209.59;4948522;28;124336;-70
2022/10/20 08:47:13;;;;;;;12.45;9.38;;;;;;;16.30;59.90;101199.47;4964353;28;123805;-70
2022/10/20 08:49:40;;;;;;;14.88;9.82;;;;;;;16.36;59.76;101207.09;4959609;28;119767;-70
2022/10/20 08:52:13;;;;;;;14.82;9.35;;;;;;;16.43;59.88;101203.06;4965200;28;119631;-70
2022/10/20 08:54:40;;;;;;;14.05;9.43;;;;;;;16.50;60.02;101214.22;4962697;28;123942;-70
2022/10/20 08:57:21;;;;;;;13.30;9.45;;;;;;;16.58;59.99;101195.03;4964784;28;123921;-70
2022/10/20 08:59:53;;;;;;;14.73;8.82;;;;;;;16.65;59.86;101201.69;4964733;28;120319;-70
2022/10/20 09:02:21;;;;;;;15.02;8.98;;;;;;;16.72;59.51;101211.03;4966729;28;120525;-71
2022/10/20 09:04:56;;;;;;;13.98;9.07;;;;;;;16.78;59.65;101201.75;4966627;28;124533;-70
2022/10/20 09:07:33;;;;;;;15.32;9.15;;;;;;;16.81;59.28;101207.75;4949854;28;100213;-70
2022/10/20 09:10:29;;;;;;;15.55;9.50;;;;;;;16.85;59.33;101198.59;4963903;28;120809;-70
2022/10/20 09:12:57;;;;;;;13.38;9.38;;;;;;;16.88;59.08;101197.56;4938139;28;118003;-70
2022/10/20 09:15:25;;;;;;;14.38;9.95;;;;;;;16.91;59.35;101197.34;4963384;28;124774;-71
2022/10/20 09:18:01;;;;;;;13.52;9.82;;;;;;;16.98;59.29;101203.16;4966752;28;124248;-70
2022/10/20 09:20:32;;;;;;;15.48;9.52;;;;;;;17.01;59.13;101193.09;4948670;28;117325;-70
2022/10/20 09:23:00;;;;;;;14.73;10.25;;;;;;;17.07;59.15;101184.66;4963879;28;118860;-70
2022/10/20 09:25:31;;;;;;;14.50;9.50;;;;;;;17.12;59.02;101178.97;4965153;28;123608;-71
2022/10/20 09:27:58;;;;;;;14.35;9.60;;;;;;;17.15;59.07;101178.78;4966462;28;123462;-70
2022/10/20 09:30:28;;;;;;;13.10;9.07;;;;;;;17.19;58.98;101179.44;4965277;28;119169;-70
2022/10/20 09:32:54;;;;;;;14.98;9.40;;;;;;;17.24;59.08;101185.34;4964473;28;118579;-70
2022/10/20 09:35:27;;;;;;;16.20;9.23;;;;;;;17.27;58.81;101183.31;4964076;28;123820;-70
2022/10/20 09:38:03;;;;;;;14.55;9.90;;;;;;;17.32;58.70;101181.16;4964649;28;123562;-70
2022/10/20 09:40:30;;;;;;;12.48;9.07;;;;;;;17.37;58.81;101180.88;4962264;28;117954;-70
2022/10/20 09:43:08;;;;;;;17.30;10.80;;;;;;;17.41;58.72;101174.34;4962905;28;119019;-70
2022/10/20 09:45:38;;;;;;;14.00;10.40;;;;;;;17.48;58.72;101177.47;4945921;28;123381;-70
2022/10/20 09:48:22;;;;;;;15.27;10.38;;;;;;;17.52;58.57;101189.69;4965285;28;125300;-71
2022/10/20 09:50:54;;;;;;;13.45;10.40;;;;;;;17.55;58.65;101181.41;4961296;28;120099;-70
2022/10/20 09:53:28;;;;;;;13.27;9.57;;;;;;;17.59;58.47;101182.91;4961786;28;120490;-70
2022/10/20 09:55:55;;;;;;;20.65;10.50;;;;;;;17.63;58.42;101176.41;4961447;28;126942;-70
2022/10/20 09:58:29;;;;;;;14.02;10.13;;;;;;;17.67;58.36;101172.53;4964589;28;122943;-70
2022/10/20 10:01:02;;;;;;;13.35;9.95;;;;;;;17.69;58.35;101151.84;4963700;28;118455;-70
2022/10/20 10:03:45;;;;;;;14.20;9.98;;;;;;;17.73;58.41;101162.38;4963157;28;118916;-70
2022/10/20 10:06:37;;;;;;;19.27;10.55;;;;;;;17.77;58.51;101158.50;4963517;28;123881;-70
2022/10/20 10:09:25;;;;;;;15.30;10.55;;;;;;;17.80;58.42;101159.16;4941215;28;124044;-70
2022/10/20 10:11:58;;;;;;;14.65;10.48;;;;;;;17.85;58.51;101177.59;4947063;28;119081;-70
2022/10/20 10:14:25;;;;;;;15.32;10.15;;;;;;;17.87;58.55;101189.91;4964254;28;118567;-70
2022/10/20 10:16:52;;;;;;;17.80;10.05;;;;;;;17.88;58.35;101193.47;4964158;28;124140;-70
2022/10/20 10:19:26;;;;;;;13.80;9.65;;;;;;;17.89;58.27;101181.78;4931671;28;123581;-70
2022/10/20 10:21:56;;;;;;;14.45;9.70;;;;;;;17.91;58.13;101182.53;4963603;28;119546;-70
2022/10/20 10:24:37;;;;;;;13.52;9.85;;;;;;;17.91;58.33;101193.25;4947941;28;118740;-70
2022/10/20 10:27:17;;;;;;;14.07;10.30;;;;;;;17.93;58.18;101196.66;4938688;28;124765;-70
2022/10/20 10:29:44;;;;;;;14.88;9.95;;;;;;;17.94;58.05;101201.06;4963068;28;124623;-71
2022/10/20 10:32:22;;;;;;;16.40;9.98;;;;;;;17.95;58.19;101194.75;4965806;28;119390;-70
2022/10/20 10:35:18;;;;;;;13.82;10.18;;;;;;;17.93;58.06;101185.94;4946408;28;119627;-70
2022/10/20 10:37:46;;;;;;;17.05;10.80;;;;;;;17.93;58.06;101182.41;4964591;28;123954;-70
2022/10/20 10:40:18;;;;;;;13.63;10.15;;;;;;;17.92;58.04;101178.88;4964756;28;123696;-70
2022/10/20 10:43:07;;;;;;;17.20;10.88;;;;;;;17.91;58.02;101187.88;4965414;28;120152;-70
2022/10/20 10:45:57;;;;;;;15.18;10.13;;;;;;;17.91;58.19;101187.88;4946984;28;119754;-70
2022/10/20 10:48:54;;;;;;;14.05;10.02;;;;;;;17.91;58.22;101182.53;4964473;28;123814;-71
2022/10/20 10:51:54;;;;;;;16.05;10.20;;;;;;;17.90;58.17;101175.47;4966507;28;124109;-70
2022/10/20 10:54:42;;;;;;;13.23;10.27;;;;;;;17.87;58.31;101175.66;4965632;28;118825;-70
2022/10/20 10:57:53;;;;;;;12.98;10.63;;;;;;;17.86;58.29;101165.94;4966705;28;118703;-70
2022/10/20 11:00:43;;;;;;;16.70;11.18;;;;;;;17.86;58.43;101164.09;4965776;28;123641;-70
2022/10/20 11:03:36;;;;;;;16.33;10.75;;;;;;;17.87;58.36;101148.88;4968198;28;123838;-70
2022/10/20 11:06:34;;;;;;;14.38;10.43;;;;;;;17.88;58.59;101150.59;4964407;28;119822;-71
2022/10/20 11:09:05;;;;;;;17.20;11.23;;;;;;;17.90;58.42;101143.31;4932677;28;117974;-70
2022/10/20 11:12:14;;;;;;;17.98;10.95;;;;;;;17.89;58.43;101141.56;4966462;28;123915;-70
2022/10/20 11:14:59;;;;;;;15.93;11.18;;;;;;;17.89;58.65;101136.22;4947237;28;123905;-70
2022/10/20 11:17:51;;;;;;;15.70;11.23;;;;;;;17.89;58.94;101139.78;4963761;28;119148;-70
2022/10/20 11:20:28;;;;;;;17.63;11.43;;;;;;;17.91;58.80;101145.00;4939340;28;118475;-70
2022/10/20 11:23:21;;;;;;;20.48;12.13;;;;;;;17.89;59.02;101141.56;4963852;28;123548;-70
2022/10/20 11:26:24;;;;;;;22.30;12.73;;;;;;;17.88;58.86;101167.53;4960602;28;123936;-71
2022/10/20 11:28:56;;;;;;;;;;;;;;;17.86;58.79;101141.81;4964118;28;118979;-71